Terminal Aerodrome Forecast
Issued by NWS

Home | Current Version | Previous Version | Text Only | Print | Product List | Glossary Off
Versions: 1 2 3 4 5 6 7 8 9 10 11 12 13 14 15

000
FTUS43 KMPX 281740
TAFRWF
TAF
KRWF 281740Z 2818/2918 05007KT 3SM -SHRA BR SCT008 OVC040
     FM281900 02006KT 6SM -SHRA OVC040
      TEMPO 2819/2821 4SM SHRA OVC015
     FM282100 34005KT 6SM -SHRA OVC025
      TEMPO 2821/2824 4SM -TSRA OVC015CB
     FM290600 28007KT P6SM VCSH OVC010
     FM291500 28009KT P6SM OVC018=

USA.gov is the U.S. government's official web portal to all federal, state and local government web resources and services.